sensor_id;sensor_type;location;lat;lon;timestamp;P1;durP1;ratioP1;P2;durP2;ratioP2
7173;SDS011;3628;48.654;8.932;2022-10-31T00:00:50;3.57;;;1.80;;
7173;SDS011;3628;48.654;8.932;2022-10-31T00:03:16;3.37;;;1.97;;
7173;SDS011;3628;48.654;8.932;2022-10-31T00:05:46;3.10;;;1.60;;
7173;SDS011;3628;48.654;8.932;2022-10-31T00:08:14;2.53;;;1.30;;
7173;SDS011;3628;48.654;8.932;2022-10-31T00:10:40;4.60;;;2.30;;
7173;SDS011;3628;48.654;8.932;2022-10-31T00:13:07;2.30;;;1.70;;
7173;SDS011;3628;48.654;8.932;2022-10-31T00:15:37;5.93;;;1.73;;
7173;SDS011;3628;48.654;8.932;2022-10-31T00:18:03;4.13;;;1.90;;
7173;SDS011;3628;48.654;8.932;2022-10-31T00:20:30;3.03;;;1.73;;
7173;SDS011;3628;48.654;8.932;2022-10-31T00:23:02;3.87;;;2.00;;
7173;SDS011;3628;48.654;8.932;2022-10-31T00:25:32;5.30;;;2.10;;
7173;SDS011;3628;48.654;8.932;2022-10-31T00:27:59;4.93;;;1.93;;
7173;SDS011;3628;48.654;8.932;2022-10-31T00:30:25;6.00;;;1.60;;
7173;SDS011;3628;48.654;8.932;2022-10-31T00:32:51;3.77;;;1.80;;
7173;SDS011;3628;48.654;8.932;2022-10-31T00:35:16;3.47;;;1.50;;
7173;SDS011;3628;48.654;8.932;2022-10-31T00:37:42;2.50;;;1.50;;
7173;SDS011;3628;48.654;8.932;2022-10-31T00:40:07;3.00;;;1.70;;
7173;SDS011;3628;48.654;8.932;2022-10-31T00:42:33;3.97;;;2.27;;
7173;SDS011;3628;48.654;8.932;2022-10-31T00:44:59;3.50;;;2.00;;
7173;SDS011;3628;48.654;8.932;2022-10-31T00:47:24;5.60;;;2.00;;
7173;SDS011;3628;48.654;8.932;2022-10-31T00:49:50;3.00;;;1.90;;
7173;SDS011;3628;48.654;8.932;2022-10-31T00:52:15;2.63;;;1.97;;
7173;SDS011;3628;48.654;8.932;2022-10-31T00:54:41;3.80;;;2.00;;
7173;SDS011;3628;48.654;8.932;2022-10-31T00:57:06;3.50;;;1.83;;
7173;SDS011;3628;48.654;8.932;2022-10-31T00:59:32;3.20;;;2.27;;
7173;SDS011;3628;48.654;8.932;2022-10-31T01:01:57;3.70;;;1.70;;
7173;SDS011;3628;48.654;8.932;2022-10-31T01:04:23;8.77;;;2.53;;
7173;SDS011;3628;48.654;8.932;2022-10-31T01:06:49;4.27;;;2.17;;
7173;SDS011;3628;48.654;8.932;2022-10-31T01:09:14;2.63;;;1.83;;
7173;SDS011;3628;48.654;8.932;2022-10-31T01:11:40;7.13;;;1.77;;
7173;SDS011;3628;48.654;8.932;2022-10-31T01:14:05;4.43;;;1.93;;
7173;SDS011;3628;48.654;8.932;2022-10-31T01:16:31;2.33;;;1.60;;
7173;SDS011;3628;48.654;8.932;2022-10-31T01:18:56;4.53;;;2.00;;
7173;SDS011;3628;48.654;8.932;2022-10-31T01:21:23;2.57;;;1.60;;
7173;SDS011;3628;48.654;8.932;2022-10-31T01:23:50;5.13;;;1.73;;
7173;SDS011;3628;48.654;8.932;2022-10-31T01:26:20;2.93;;;1.77;;
7173;SDS011;3628;48.654;8.932;2022-10-31T01:28:57;3.17;;;1.57;;
7173;SDS011;3628;48.654;8.932;2022-10-31T01:31:32;3.67;;;1.37;;
7173;SDS011;3628;48.654;8.932;2022-10-31T01:33:59;6.67;;;1.60;;
7173;SDS011;3628;48.654;8.932;2022-10-31T01:36:29;2.93;;;1.43;;
7173;SDS011;3628;48.654;8.932;2022-10-31T01:38:57;5.07;;;1.93;;
7173;SDS011;3628;48.654;8.932;2022-10-31T01:41:28;4.63;;;1.60;;
7173;SDS011;3628;48.654;8.932;2022-10-31T01:43:56;2.83;;;1.70;;
7173;SDS011;3628;48.654;8.932;2022-10-31T01:46:31;2.33;;;1.40;;
7173;SDS011;3628;48.654;8.932;2022-10-31T01:49:02;4.00;;;1.60;;
7173;SDS011;3628;48.654;8.932;2022-10-31T01:51:34;2.87;;;1.50;;
7173;SDS011;3628;48.654;8.932;2022-10-31T01:54:04;3.13;;;1.77;;
7173;SDS011;3628;48.654;8.932;2022-10-31T01:56:33;4.77;;;1.83;;
7173;SDS011;3628;48.654;8.932;2022-10-31T01:59:02;3.30;;;1.60;;
7173;SDS011;3628;48.654;8.932;2022-10-31T02:01:31;2.80;;;1.60;;
7173;SDS011;3628;48.654;8.932;2022-10-31T02:03:57;3.00;;;1.80;;
7173;SDS011;3628;48.654;8.932;2022-10-31T02:06:27;6.67;;;1.73;;
7173;SDS011;3628;48.654;8.932;2022-10-31T02:09:03;2.73;;;1.93;;
7173;SDS011;3628;48.654;8.932;2022-10-31T02:11:30;3.30;;;1.57;;
7173;SDS011;3628;48.654;8.932;2022-10-31T02:13:58;3.77;;;1.53;;
7173;SDS011;3628;48.654;8.932;2022-10-31T02:16:26;4.67;;;1.33;;
7173;SDS011;3628;48.654;8.932;2022-10-31T02:18:51;2.20;;;1.57;;
7173;SDS011;3628;48.654;8.932;2022-10-31T02:21:26;1.40;;;1.30;;
7173;SDS011;3628;48.654;8.932;2022-10-31T02:27:11;2.63;;;1.57;;
7173;SDS011;3628;48.654;8.932;2022-10-31T02:30:11;1.37;;;1.27;;
7173;SDS011;3628;48.654;8.932;2022-10-31T02:43:29;2.23;;;1.27;;
7173;SDS011;3628;48.654;8.932;2022-10-31T02:48:44;3.50;;;2.17;;
7173;SDS011;3628;48.654;8.932;2022-10-31T02:51:12;1.67;;;1.30;;
7173;SDS011;3628;48.654;8.932;2022-10-31T02:53:38;2.77;;;1.40;;
7173;SDS011;3628;48.654;8.932;2022-10-31T02:56:14;2.67;;;1.60;;
7173;SDS011;3628;48.654;8.932;2022-10-31T02:58:44;5.00;;;1.40;;
7173;SDS011;3628;48.654;8.932;2022-10-31T03:01:33;1.97;;;1.40;;
7173;SDS011;3628;48.654;8.932;2022-10-31T03:10:03;5.13;;;1.70;;
7173;SDS011;3628;48.654;8.932;2022-10-31T03:15:14;3.80;;;1.53;;
7173;SDS011;3628;48.654;8.932;2022-10-31T03:17:52;2.10;;;1.40;;
7173;SDS011;3628;48.654;8.932;2022-10-31T03:20:19;3.90;;;1.53;;
7173;SDS011;3628;48.654;8.932;2022-10-31T03:22:49;4.13;;;2.03;;
7173;SDS011;3628;48.654;8.932;2022-10-31T03:25:16;4.23;;;1.50;;
7173;SDS011;3628;48.654;8.932;2022-10-31T03:27:42;2.00;;;1.37;;
7173;SDS011;3628;48.654;8.932;2022-10-31T03:30:10;1.60;;;1.30;;
7173;SDS011;3628;48.654;8.932;2022-10-31T03:32:40;2.43;;;1.63;;
7173;SDS011;3628;48.654;8.932;2022-10-31T03:35:14;2.33;;;1.67;;
7173;SDS011;3628;48.654;8.932;2022-10-31T03:37:42;1.87;;;1.63;;
7173;SDS011;3628;48.654;8.932;2022-10-31T03:40:08;3.83;;;1.57;;
7173;SDS011;3628;48.654;8.932;2022-10-31T03:42:37;3.37;;;1.53;;
7173;SDS011;3628;48.654;8.932;2022-10-31T03:45:12;5.80;;;1.80;;
7173;SDS011;3628;48.654;8.932;2022-10-31T03:47:42;2.10;;;1.70;;
7173;SDS011;3628;48.654;8.932;2022-10-31T03:50:09;6.33;;;1.63;;
7173;SDS011;3628;48.654;8.932;2022-10-31T03:52:40;4.10;;;1.70;;
7173;SDS011;3628;48.654;8.932;2022-10-31T03:57:48;3.17;;;1.57;;
7173;SDS011;3628;48.654;8.932;2022-10-31T04:00:20;4.70;;;1.60;;
7173;SDS011;3628;48.654;8.932;2022-10-31T04:02:53;1.70;;;1.50;;
7173;SDS011;3628;48.654;8.932;2022-10-31T04:05:24;4.43;;;1.60;;
7173;SDS011;3628;48.654;8.932;2022-10-31T04:07:51;2.27;;;1.20;;
7173;SDS011;3628;48.654;8.932;2022-10-31T04:10:19;4.07;;;1.43;;
7173;SDS011;3628;48.654;8.932;2022-10-31T04:12:48;2.57;;;1.53;;
7173;SDS011;3628;48.654;8.932;2022-10-31T04:15:18;5.60;;;1.70;;
7173;SDS011;3628;48.654;8.932;2022-10-31T04:17:45;2.07;;;1.10;;
7173;SDS011;3628;48.654;8.932;2022-10-31T04:20:17;2.73;;;1.30;;
7173;SDS011;3628;48.654;8.932;2022-10-31T04:22:43;3.97;;;1.60;;
7173;SDS011;3628;48.654;8.932;2022-10-31T04:25:09;1.63;;;1.40;;
7173;SDS011;3628;48.654;8.932;2022-10-31T04:27:34;1.63;;;1.33;;
7173;SDS011;3628;48.654;8.932;2022-10-31T04:30:00;5.43;;;1.60;;
7173;SDS011;3628;48.654;8.932;2022-10-31T04:32:25;3.13;;;1.33;;
7173;SDS011;3628;48.654;8.932;2022-10-31T04:34:51;1.70;;;1.27;;
7173;SDS011;3628;48.654;8.932;2022-10-31T04:37:17;2.17;;;1.50;;
7173;SDS011;3628;48.654;8.932;2022-10-31T04:39:42;5.70;;;1.70;;
7173;SDS011;3628;48.654;8.932;2022-10-31T04:42:08;1.73;;;1.13;;
7173;SDS011;3628;48.654;8.932;2022-10-31T04:44:33;2.37;;;1.43;;
7173;SDS011;3628;48.654;8.932;2022-10-31T04:46:59;2.00;;;1.40;;
7173;SDS011;3628;48.654;8.932;2022-10-31T04:49:24;4.97;;;1.90;;
7173;SDS011;3628;48.654;8.932;2022-10-31T04:51:50;4.67;;;1.47;;
7173;SDS011;3628;48.654;8.932;2022-10-31T04:54:15;3.80;;;1.37;;
7173;SDS011;3628;48.654;8.932;2022-10-31T04:56:41;2.43;;;1.87;;
7173;SDS011;3628;48.654;8.932;2022-10-31T04:59:06;2.83;;;1.70;;
7173;SDS011;3628;48.654;8.932;2022-10-31T05:01:32;3.60;;;1.50;;
7173;SDS011;3628;48.654;8.932;2022-10-31T05:03:57;2.87;;;1.60;;
7173;SDS011;3628;48.654;8.932;2022-10-31T05:06:23;4.40;;;1.60;;
7173;SDS011;3628;48.654;8.932;2022-10-31T05:08:48;4.43;;;1.47;;
7173;SDS011;3628;48.654;8.932;2022-10-31T05:11:14;3.83;;;1.60;;
7173;SDS011;3628;48.654;8.932;2022-10-31T05:13:40;3.77;;;1.43;;
7173;SDS011;3628;48.654;8.932;2022-10-31T05:16:05;3.87;;;1.80;;
7173;SDS011;3628;48.654;8.932;2022-10-31T05:18:31;2.93;;;1.53;;
7173;SDS011;3628;48.654;8.932;2022-10-31T05:20:56;2.37;;;1.40;;
7173;SDS011;3628;48.654;8.932;2022-10-31T05:23:22;3.63;;;1.50;;
7173;SDS011;3628;48.654;8.932;2022-10-31T05:25:47;2.43;;;1.40;;
7173;SDS011;3628;48.654;8.932;2022-10-31T05:28:13;5.13;;;1.80;;
7173;SDS011;3628;48.654;8.932;2022-10-31T05:30:39;5.40;;;1.90;;
7173;SDS011;3628;48.654;8.932;2022-10-31T05:33:04;3.57;;;1.57;;
7173;SDS011;3628;48.654;8.932;2022-10-31T05:35:31;2.70;;;1.33;;
7173;SDS011;3628;48.654;8.932;2022-10-31T05:37:57;59.97;;;4.80;;
7173;SDS011;3628;48.654;8.932;2022-10-31T05:40:23;3.83;;;1.50;;
7173;SDS011;3628;48.654;8.932;2022-10-31T05:42:50;13.50;;;2.53;;
7173;SDS011;3628;48.654;8.932;2022-10-31T05:45:17;4.70;;;1.80;;
7173;SDS011;3628;48.654;8.932;2022-10-31T05:47:50;13.80;;;2.17;;
7173;SDS011;3628;48.654;8.932;2022-10-31T05:50:17;2.17;;;1.70;;
7173;SDS011;3628;48.654;8.932;2022-10-31T05:52:42;1.47;;;1.20;;
7173;SDS011;3628;48.654;8.932;2022-10-31T05:55:08;3.83;;;1.53;;
7173;SDS011;3628;48.654;8.932;2022-10-31T05:57:33;2.20;;;1.50;;
7173;SDS011;3628;48.654;8.932;2022-10-31T05:59:59;1.60;;;1.50;;
7173;SDS011;3628;48.654;8.932;2022-10-31T06:02:25;4.00;;;1.83;;
7173;SDS011;3628;48.654;8.932;2022-10-31T06:04:51;2.90;;;1.53;;
7173;SDS011;3628;48.654;8.932;2022-10-31T06:07:17;3.60;;;1.67;;
7173;SDS011;3628;48.654;8.932;2022-10-31T06:09:43;1.60;;;1.40;;
7173;SDS011;3628;48.654;8.932;2022-10-31T06:12:08;4.27;;;2.03;;
7173;SDS011;3628;48.654;8.932;2022-10-31T06:14:34;2.00;;;1.50;;
7173;SDS011;3628;48.654;8.932;2022-10-31T06:16:59;8.43;;;1.77;;
7173;SDS011;3628;48.654;8.932;2022-10-31T06:19:25;4.63;;;1.70;;
7173;SDS011;3628;48.654;8.932;2022-10-31T06:21:50;5.23;;;1.60;;
7173;SDS011;3628;48.654;8.932;2022-10-31T06:24:16;4.87;;;2.20;;
7173;SDS011;3628;48.654;8.932;2022-10-31T06:26:42;5.00;;;2.50;;
7173;SDS011;3628;48.654;8.932;2022-10-31T06:29:07;5.23;;;2.50;;
7173;SDS011;3628;48.654;8.932;2022-10-31T06:31:33;4.53;;;2.00;;
7173;SDS011;3628;48.654;8.932;2022-10-31T06:33:58;4.03;;;1.97;;
7173;SDS011;3628;48.654;8.932;2022-10-31T06:36:24;3.20;;;1.63;;
7173;SDS011;3628;48.654;8.932;2022-10-31T06:38:49;3.43;;;1.87;;
7173;SDS011;3628;48.654;8.932;2022-10-31T06:41:15;3.57;;;1.60;;
7173;SDS011;3628;48.654;8.932;2022-10-31T06:43:40;2.13;;;1.63;;
7173;SDS011;3628;48.654;8.932;2022-10-31T06:46:06;3.70;;;1.93;;
7173;SDS011;3628;48.654;8.932;2022-10-31T06:48:32;2.60;;;1.83;;
7173;SDS011;3628;48.654;8.932;2022-10-31T06:51:00;3.43;;;1.50;;
7173;SDS011;3628;48.654;8.932;2022-10-31T06:53:27;2.30;;;1.80;;
7173;SDS011;3628;48.654;8.932;2022-10-31T06:55:55;1.73;;;1.50;;
7173;SDS011;3628;48.654;8.932;2022-10-31T06:58:20;3.40;;;1.70;;
7173;SDS011;3628;48.654;8.932;2022-10-31T07:00:46;2.53;;;1.53;;
7173;SDS011;3628;48.654;8.932;2022-10-31T07:03:12;2.63;;;1.57;;
7173;SDS011;3628;48.654;8.932;2022-10-31T07:05:40;3.47;;;1.90;;
7173;SDS011;3628;48.654;8.932;2022-10-31T07:08:06;2.73;;;2.10;;
7173;SDS011;3628;48.654;8.932;2022-10-31T07:10:35;2.90;;;1.90;;
7173;SDS011;3628;48.654;8.932;2022-10-31T07:13:03;3.53;;;1.77;;
7173;SDS011;3628;48.654;8.932;2022-10-31T07:15:33;1.73;;;1.50;;
7173;SDS011;3628;48.654;8.932;2022-10-31T07:18:01;3.37;;;1.50;;
7173;SDS011;3628;48.654;8.932;2022-10-31T07:20:28;3.80;;;1.63;;
7173;SDS011;3628;48.654;8.932;2022-10-31T07:22:53;3.60;;;1.50;;
7173;SDS011;3628;48.654;8.932;2022-10-31T07:25:19;3.50;;;1.40;;
7173;SDS011;3628;48.654;8.932;2022-10-31T07:27:45;2.27;;;1.50;;
7173;SDS011;3628;48.654;8.932;2022-10-31T07:30:11;3.43;;;1.47;;
7173;SDS011;3628;48.654;8.932;2022-10-31T07:32:56;2.90;;;1.30;;
7173;SDS011;3628;48.654;8.932;2022-10-31T07:35:23;3.97;;;1.40;;
7173;SDS011;3628;48.654;8.932;2022-10-31T07:37:49;3.60;;;1.60;;
7173;SDS011;3628;48.654;8.932;2022-10-31T07:40:15;3.23;;;2.00;;
7173;SDS011;3628;48.654;8.932;2022-10-31T07:42:42;3.83;;;1.87;;
7173;SDS011;3628;48.654;8.932;2022-10-31T07:45:11;3.43;;;1.40;;
7173;SDS011;3628;48.654;8.932;2022-10-31T07:47:45;2.27;;;1.77;;
7173;SDS011;3628;48.654;8.932;2022-10-31T07:50:18;4.13;;;1.40;;
7173;SDS011;3628;48.654;8.932;2022-10-31T07:52:57;2.70;;;1.80;;
7173;SDS011;3628;48.654;8.932;2022-10-31T07:55:24;2.90;;;1.70;;
7173;SDS011;3628;48.654;8.932;2022-10-31T07:57:57;2.40;;;1.90;;
7173;SDS011;3628;48.654;8.932;2022-10-31T08:00:22;4.17;;;2.00;;
7173;SDS011;3628;48.654;8.932;2022-10-31T08:02:48;4.77;;;2.00;;
7173;SDS011;3628;48.654;8.932;2022-10-31T08:05:20;2.40;;;2.20;;
7173;SDS011;3628;48.654;8.932;2022-10-31T08:07:46;4.53;;;2.30;;
7173;SDS011;3628;48.654;8.932;2022-10-31T08:10:11;4.47;;;1.70;;
7173;SDS011;3628;48.654;8.932;2022-10-31T08:12:37;5.73;;;2.30;;
7173;SDS011;3628;48.654;8.932;2022-10-31T08:15:03;3.07;;;2.07;;
7173;SDS011;3628;48.654;8.932;2022-10-31T08:17:29;4.90;;;2.30;;
7173;SDS011;3628;48.654;8.932;2022-10-31T08:19:55;6.37;;;2.10;;
7173;SDS011;3628;48.654;8.932;2022-10-31T08:22:20;4.93;;;1.93;;
7173;SDS011;3628;48.654;8.932;2022-10-31T08:24:46;4.23;;;1.97;;
7173;SDS011;3628;48.654;8.932;2022-10-31T08:27:11;4.00;;;2.00;;
7173;SDS011;3628;48.654;8.932;2022-10-31T08:29:37;5.07;;;2.00;;
7173;SDS011;3628;48.654;8.932;2022-10-31T08:32:02;3.67;;;2.00;;
7173;SDS011;3628;48.654;8.932;2022-10-31T08:34:28;3.97;;;1.90;;
7173;SDS011;3628;48.654;8.932;2022-10-31T08:36:53;3.30;;;2.13;;
7173;SDS011;3628;48.654;8.932;2022-10-31T08:39:19;8.10;;;2.33;;
7173;SDS011;3628;48.654;8.932;2022-10-31T08:41:44;6.07;;;2.30;;
7173;SDS011;3628;48.654;8.932;2022-10-31T08:44:10;5.60;;;2.43;;
7173;SDS011;3628;48.654;8.932;2022-10-31T08:46:35;4.10;;;1.70;;
7173;SDS011;3628;48.654;8.932;2022-10-31T08:49:01;4.97;;;1.83;;
7173;SDS011;3628;48.654;8.932;2022-10-31T08:51:27;6.27;;;2.50;;
7173;SDS011;3628;48.654;8.932;2022-10-31T08:53:52;6.90;;;2.10;;
7173;SDS011;3628;48.654;8.932;2022-10-31T08:56:18;10.23;;;2.33;;
7173;SDS011;3628;48.654;8.932;2022-10-31T08:58:43;12.97;;;2.83;;
7173;SDS011;3628;48.654;8.932;2022-10-31T09:01:09;9.77;;;2.40;;
7173;SDS011;3628;48.654;8.932;2022-10-31T09:03:34;7.83;;;2.43;;
7173;SDS011;3628;48.654;8.932;2022-10-31T09:06:01;6.33;;;1.90;;
7173;SDS011;3628;48.654;8.932;2022-10-31T09:08:31;8.30;;;2.30;;
7173;SDS011;3628;48.654;8.932;2022-10-31T09:10:57;4.37;;;2.00;;
7173;SDS011;3628;48.654;8.932;2022-10-31T09:13:23;4.70;;;2.07;;
7173;SDS011;3628;48.654;8.932;2022-10-31T09:15:49;6.10;;;2.30;;
7173;SDS011;3628;48.654;8.932;2022-10-31T09:18:16;4.13;;;2.00;;
7173;SDS011;3628;48.654;8.932;2022-10-31T09:20:44;4.53;;;2.40;;
7173;SDS011;3628;48.654;8.932;2022-10-31T09:23:15;5.23;;;2.00;;
7173;SDS011;3628;48.654;8.932;2022-10-31T09:25:46;4.37;;;2.17;;
7173;SDS011;3628;48.654;8.932;2022-10-31T09:28:14;4.33;;;1.60;;
7173;SDS011;3628;48.654;8.932;2022-10-31T09:30:41;5.10;;;2.10;;
7173;SDS011;3628;48.654;8.932;2022-10-31T09:33:09;3.37;;;1.97;;
7173;SDS011;3628;48.654;8.932;2022-10-31T09:35:36;6.13;;;2.00;;
7173;SDS011;3628;48.654;8.932;2022-10-31T09:38:03;4.83;;;2.20;;
7173;SDS011;3628;48.654;8.932;2022-10-31T09:40:43;6.20;;;2.00;;
7173;SDS011;3628;48.654;8.932;2022-10-31T09:43:17;5.70;;;2.40;;
7173;SDS011;3628;48.654;8.932;2022-10-31T09:48:50;8.50;;;2.27;;
7173;SDS011;3628;48.654;8.932;2022-10-31T09:56:59;5.30;;;2.43;;
7173;SDS011;3628;48.654;8.932;2022-10-31T09:59:27;8.00;;;2.27;;
7173;SDS011;3628;48.654;8.932;2022-10-31T10:02:00;4.23;;;2.30;;
7173;SDS011;3628;48.654;8.932;2022-10-31T10:07:12;3.67;;;2.10;;
7173;SDS011;3628;48.654;8.932;2022-10-31T10:09:44;7.63;;;2.65;;
7173;SDS011;3628;48.654;8.932;2022-10-31T10:15:02;7.88;;;2.90;;
7173;SDS011;3628;48.654;8.932;2022-10-31T10:18:04;7.65;;;2.88;;
7173;SDS011;3628;48.654;8.932;2022-10-31T10:20:40;6.18;;;2.42;;
7173;SDS011;3628;48.654;8.932;2022-10-31T10:25:55;3.33;;;2.50;;
7173;SDS011;3628;48.654;8.932;2022-10-31T10:28:37;4.25;;;3.00;;
7173;SDS011;3628;48.654;8.932;2022-10-31T10:31:10;7.05;;;2.65;;
7173;SDS011;3628;48.654;8.932;2022-10-31T10:33:40;5.88;;;2.72;;
7173;SDS011;3628;48.654;8.932;2022-10-31T10:36:20;4.45;;;2.75;;
7173;SDS011;3628;48.654;8.932;2022-10-31T10:39:04;5.75;;;2.50;;
7173;SDS011;3628;48.654;8.932;2022-10-31T10:41:36;4.05;;;2.63;;
7173;SDS011;3628;48.654;8.932;2022-10-31T10:44:08;4.63;;;2.60;;
7173;SDS011;3628;48.654;8.932;2022-10-31T10:46:41;5.63;;;3.17;;
7173;SDS011;3628;48.654;8.932;2022-10-31T10:52:31;8.27;;;3.00;;
7173;SDS011;3628;48.654;8.932;2022-10-31T10:58:09;3.47;;;2.42;;
7173;SDS011;3628;48.654;8.932;2022-10-31T11:00:38;4.72;;;2.60;;
7173;SDS011;3628;48.654;8.932;2022-10-31T11:03:06;7.53;;;2.75;;
7173;SDS011;3628;48.654;8.932;2022-10-31T11:05:39;2.85;;;2.30;;
7173;SDS011;3628;48.654;8.932;2022-10-31T11:08:10;5.32;;;2.75;;
7173;SDS011;3628;48.654;8.932;2022-10-31T11:10:36;7.30;;;2.63;;
7173;SDS011;3628;48.654;8.932;2022-10-31T11:16:27;4.53;;;2.60;;
7173;SDS011;3628;48.654;8.932;2022-10-31T11:18:44;5.10;;;2.10;;
7173;SDS011;3628;48.654;8.932;2022-10-31T11:21:21;8.07;;;3.17;;
7173;SDS011;3628;48.654;8.932;2022-10-31T11:23:49;5.43;;;2.50;;
7173;SDS011;3628;48.654;8.932;2022-10-31T11:26:18;6.03;;;3.08;;
7173;SDS011;3628;48.654;8.932;2022-10-31T11:28:55;4.88;;;2.40;;
7173;SDS011;3628;48.654;8.932;2022-10-31T11:31:24;6.97;;;2.20;;
7173;SDS011;3628;48.654;8.932;2022-10-31T11:33:53;5.40;;;2.22;;
7173;SDS011;3628;48.654;8.932;2022-10-31T11:36:33;7.93;;;3.05;;
7173;SDS011;3628;48.654;8.932;2022-10-31T11:39:02;5.10;;;2.42;;
7173;SDS011;3628;48.654;8.932;2022-10-31T11:41:30;9.55;;;2.35;;
7173;SDS011;3628;48.654;8.932;2022-10-31T11:44:00;6.45;;;2.40;;
7173;SDS011;3628;48.654;8.932;2022-10-31T11:46:40;3.65;;;2.00;;
7173;SDS011;3628;48.654;8.932;2022-10-31T11:51:53;3.38;;;2.20;;
7173;SDS011;3628;48.654;8.932;2022-10-31T11:54:23;6.40;;;2.28;;
7173;SDS011;3628;48.654;8.932;2022-10-31T11:56:52;7.30;;;2.22;;
7173;SDS011;3628;48.654;8.932;2022-10-31T11:59:21;5.80;;;2.25;;
7173;SDS011;3628;48.654;8.932;2022-10-31T12:01:55;4.65;;;2.25;;
7173;SDS011;3628;48.654;8.932;2022-10-31T12:04:24;5.68;;;2.45;;
7173;SDS011;3628;48.654;8.932;2022-10-31T12:07:05;4.50;;;2.05;;
7173;SDS011;3628;48.654;8.932;2022-10-31T12:09:33;4.20;;;1.98;;
7173;SDS011;3628;48.654;8.932;2022-10-31T12:26:15;7.97;;;2.50;;
7173;SDS011;3628;48.654;8.932;2022-10-31T12:34:40;6.53;;;2.88;;
7173;SDS011;3628;48.654;8.932;2022-10-31T12:37:15;6.05;;;2.88;;
7173;SDS011;3628;48.654;8.932;2022-10-31T12:46:00;5.82;;;2.88;;
7173;SDS011;3628;48.654;8.932;2022-10-31T12:59:20;5.25;;;2.35;;
7173;SDS011;3628;48.654;8.932;2022-10-31T13:01:57;4.65;;;3.03;;
7173;SDS011;3628;48.654;8.932;2022-10-31T13:04:35;4.90;;;2.72;;
7173;SDS011;3628;48.654;8.932;2022-10-31T13:07:10;7.13;;;2.75;;
7173;SDS011;3628;48.654;8.932;2022-10-31T13:09:42;6.50;;;3.08;;
7173;SDS011;3628;48.654;8.932;2022-10-31T13:12:16;4.82;;;2.75;;
7173;SDS011;3628;48.654;8.932;2022-10-31T13:14:49;6.20;;;2.80;;
7173;SDS011;3628;48.654;8.932;2022-10-31T13:17:36;10.00;;;2.88;;
7173;SDS011;3628;48.654;8.932;2022-10-31T13:20:15;6.53;;;2.60;;
7173;SDS011;3628;48.654;8.932;2022-10-31T13:22:48;5.25;;;2.45;;
7173;SDS011;3628;48.654;8.932;2022-10-31T13:25:18;4.47;;;2.60;;
7173;SDS011;3628;48.654;8.932;2022-10-31T13:30:15;8.15;;;2.75;;
7173;SDS011;3628;48.654;8.932;2022-10-31T13:35:12;5.95;;;2.60;;
7173;SDS011;3628;48.654;8.932;2022-10-31T13:37:46;7.03;;;2.95;;
7173;SDS011;3628;48.654;8.932;2022-10-31T13:40:21;3.67;;;2.38;;
7173;SDS011;3628;48.654;8.932;2022-10-31T13:43:05;4.53;;;2.30;;
7173;SDS011;3628;48.654;8.932;2022-10-31T13:45:50;7.03;;;2.53;;
7173;SDS011;3628;48.654;8.932;2022-10-31T13:48:18;5.15;;;2.20;;
7173;SDS011;3628;48.654;8.932;2022-10-31T13:50:55;7.30;;;2.55;;
7173;SDS011;3628;48.654;8.932;2022-10-31T13:53:34;4.07;;;2.30;;
7173;SDS011;3628;48.654;8.932;2022-10-31T13:56:11;7.20;;;2.45;;
7173;SDS011;3628;48.654;8.932;2022-10-31T14:01:35;8.02;;;2.50;;
7173;SDS011;3628;48.654;8.932;2022-10-31T14:04:03;4.65;;;2.33;;
7173;SDS011;3628;48.654;8.932;2022-10-31T14:06:44;8.75;;;2.85;;
7173;SDS011;3628;48.654;8.932;2022-10-31T14:09:24;7.63;;;2.53;;
7173;SDS011;3628;48.654;8.932;2022-10-31T14:12:04;5.32;;;2.50;;
7173;SDS011;3628;48.654;8.932;2022-10-31T14:14:45;6.70;;;2.53;;
7173;SDS011;3628;48.654;8.932;2022-10-31T14:17:21;5.78;;;2.58;;
7173;SDS011;3628;48.654;8.932;2022-10-31T14:20:21;5.53;;;2.55;;
7173;SDS011;3628;48.654;8.932;2022-10-31T14:22:45;5.38;;;2.58;;
7173;SDS011;3628;48.654;8.932;2022-10-31T14:25:33;6.22;;;2.63;;
7173;SDS011;3628;48.654;8.932;2022-10-31T14:28:01;6.25;;;2.28;;
7173;SDS011;3628;48.654;8.932;2022-10-31T14:30:50;5.57;;;2.47;;
7173;SDS011;3628;48.654;8.932;2022-10-31T14:33:22;6.05;;;2.30;;
7173;SDS011;3628;48.654;8.932;2022-10-31T14:49:22;6.10;;;2.22;;
7173;SDS011;3628;48.654;8.932;2022-10-31T14:51:50;5.68;;;2.20;;
7173;SDS011;3628;48.654;8.932;2022-10-31T14:54:23;4.25;;;2.30;;
7173;SDS011;3628;48.654;8.932;2022-10-31T14:57:07;5.95;;;2.25;;
7173;SDS011;3628;48.654;8.932;2022-10-31T14:59:51;14.15;;;2.58;;
7173;SDS011;3628;48.654;8.932;2022-10-31T15:02:27;5.82;;;2.67;;
7173;SDS011;3628;48.654;8.932;2022-10-31T15:05:16;4.57;;;1.98;;
7173;SDS011;3628;48.654;8.932;2022-10-31T15:07:53;5.97;;;2.58;;
7173;SDS011;3628;48.654;8.932;2022-10-31T15:10:25;8.80;;;2.70;;
7173;SDS011;3628;48.654;8.932;2022-10-31T15:13:09;5.80;;;2.17;;
7173;SDS011;3628;48.654;8.932;2022-10-31T15:15:40;6.88;;;2.50;;
7173;SDS011;3628;48.654;8.932;2022-10-31T15:18:06;7.93;;;2.50;;
7173;SDS011;3628;48.654;8.932;2022-10-31T15:20:35;5.50;;;2.50;;
7173;SDS011;3628;48.654;8.932;2022-10-31T15:23:08;6.82;;;2.97;;
7173;SDS011;3628;48.654;8.932;2022-10-31T15:25:39;6.72;;;2.95;;
7173;SDS011;3628;48.654;8.932;2022-10-31T15:28:12;11.75;;;2.70;;
7173;SDS011;3628;48.654;8.932;2022-10-31T15:30:51;5.55;;;2.22;;
7173;SDS011;3628;48.654;8.932;2022-10-31T15:33:25;7.20;;;2.63;;
7173;SDS011;3628;48.654;8.932;2022-10-31T15:36:00;6.15;;;2.80;;
7173;SDS011;3628;48.654;8.932;2022-10-31T15:38:27;7.53;;;2.63;;
7173;SDS011;3628;48.654;8.932;2022-10-31T15:40:55;7.78;;;2.75;;
7173;SDS011;3628;48.654;8.932;2022-10-31T15:43:23;8.23;;;2.50;;
7173;SDS011;3628;48.654;8.932;2022-10-31T15:45:50;7.30;;;3.00;;
7173;SDS011;3628;48.654;8.932;2022-10-31T15:48:16;7.23;;;2.90;;
7173;SDS011;3628;48.654;8.932;2022-10-31T15:50:52;11.82;;;5.30;;
7173;SDS011;3628;48.654;8.932;2022-10-31T15:53:21;10.23;;;4.97;;
7173;SDS011;3628;48.654;8.932;2022-10-31T15:56:02;5.63;;;3.20;;
7173;SDS011;3628;48.654;8.932;2022-10-31T15:58:31;5.88;;;2.65;;
7173;SDS011;3628;48.654;8.932;2022-10-31T16:01:05;6.37;;;2.93;;
7173;SDS011;3628;48.654;8.932;2022-10-31T16:03:43;9.23;;;3.73;;
7173;SDS011;3628;48.654;8.932;2022-10-31T16:06:21;6.70;;;3.23;;
7173;SDS011;3628;48.654;8.932;2022-10-31T16:08:47;10.77;;;4.20;;
7173;SDS011;3628;48.654;8.932;2022-10-31T16:14:13;8.83;;;4.03;;
7173;SDS011;3628;48.654;8.932;2022-10-31T16:16:46;8.90;;;3.90;;
7173;SDS011;3628;48.654;8.932;2022-10-31T16:19:30;9.73;;;3.00;;
7173;SDS011;3628;48.654;8.932;2022-10-31T16:22:03;5.50;;;3.13;;
7173;SDS011;3628;48.654;8.932;2022-10-31T16:24:32;7.37;;;3.70;;
7173;SDS011;3628;48.654;8.932;2022-10-31T16:27:05;11.17;;;6.47;;
7173;SDS011;3628;48.654;8.932;2022-10-31T16:29:44;37.43;;;24.83;;
7173;SDS011;3628;48.654;8.932;2022-10-31T16:37:24;18.37;;;13.90;;
7173;SDS011;3628;48.654;8.932;2022-10-31T16:39:50;7.93;;;4.23;;
7173;SDS011;3628;48.654;8.932;2022-10-31T16:42:15;10.30;;;6.10;;
7173;SDS011;3628;48.654;8.932;2022-10-31T16:44:41;7.70;;;4.10;;
7173;SDS011;3628;48.654;8.932;2022-10-31T16:47:12;22.50;;;10.90;;
7173;SDS011;3628;48.654;8.932;2022-10-31T16:49:39;9.43;;;5.00;;
7173;SDS011;3628;48.654;8.932;2022-10-31T16:52:05;5.73;;;2.80;;
7173;SDS011;3628;48.654;8.932;2022-10-31T16:54:31;9.53;;;2.83;;
7173;SDS011;3628;48.654;8.932;2022-10-31T16:57:00;7.00;;;2.63;;
7173;SDS011;3628;48.654;8.932;2022-10-31T16:59:27;11.70;;;3.90;;
7173;SDS011;3628;48.654;8.932;2022-10-31T17:01:54;10.57;;;6.40;;
7173;SDS011;3628;48.654;8.932;2022-10-31T17:04:20;10.77;;;6.80;;
7173;SDS011;3628;48.654;8.932;2022-10-31T17:06:46;10.33;;;5.60;;
7173;SDS011;3628;48.654;8.932;2022-10-31T17:09:12;15.47;;;10.10;;
7173;SDS011;3628;48.654;8.932;2022-10-31T17:11:39;9.70;;;6.23;;
7173;SDS011;3628;48.654;8.932;2022-10-31T17:14:10;16.47;;;9.00;;
7173;SDS011;3628;48.654;8.932;2022-10-31T17:16:36;10.50;;;6.80;;
7173;SDS011;3628;48.654;8.932;2022-10-31T17:19:02;10.10;;;3.60;;
7173;SDS011;3628;48.654;8.932;2022-10-31T17:21:27;7.97;;;3.77;;
7173;SDS011;3628;48.654;8.932;2022-10-31T17:23:53;6.60;;;3.50;;
7173;SDS011;3628;48.654;8.932;2022-10-31T17:26:19;8.37;;;3.73;;
7173;SDS011;3628;48.654;8.932;2022-10-31T17:28:44;6.93;;;3.27;;
7173;SDS011;3628;48.654;8.932;2022-10-31T17:31:14;9.13;;;3.73;;
7173;SDS011;3628;48.654;8.932;2022-10-31T17:33:54;13.90;;;5.67;;